Tiempo atmosférico en la estación meteorológica de Madrigal De La Vera, Cáceres (464 m.)



Fecha
DESCASC
Temp. máxima en grados centígrados (hora)
DESCASC
Temp. mínima en grados centígrados (hora)
DESCASC
Temp. media en grados centígrados
DESCASC
Racha de viento máxima en m/sg (hora)
DESCASC
Velocidad máxima media en intervalos de 10 minutos(hora)
DESCASC
Precipitaciones diarias en mm
DESCASC
Precipitaciones de 00:00 a 06:00 en mm
DESCASC
Precipitaciones de 06:00 a 12:00 en mm
DESCASC
Precipitaciones de 12:00 a 18:00 en mm
DESCASC
Precipitaciones de 18:00 a 24:00 en mm
DESCASC
17-09-2020 25.8 (12:30) 17 (22:40) 21.4 11.94 (19:40) 3.61 (19:50) 15.6 0 0 0 15.6
16-09-2020 32 (16:20) 16.5 (08:10) 24.3 5.28 (23:50) 2.78 (23:50) 0.2 0 0 0 0.2
15-09-2020 30 (15:50) 17.2 (07:00) 23.6 6.11 (16:30) 1.94 (16:30) 0 0 0 0 0
14-09-2020 33.5 (16:00) 18.4 (00:00) 25.9 16.11 (20:40) 5.83 (20:40) 5.4 0 0 0 5.4
13-09-2020 35.9 (15:30) 20.4 (00:00) 28.2 8.61 (23:20) 3.89 (23:59) 0 0 0 0 0
12-09-2020 35.7 (16:10) 19.8 (00:00) 27.8 4.72 (16:30) 1.94 (04:50) 0 0 0 0 0
11-09-2020 34.7 (16:10) 18 (00:00) 26.4 5.56 (17:40) 3.06 (04:40) 0 0 0 0 0
10-09-2020 33.3 (17:30) 17.2 (00:00) 25.3 6.11 (15:30) 2.5 (05:50) 0 0 0 0 0
09-09-2020 32.2 (16:20) 17 (00:00) 24.6 5.56 (14:20) 2.22 (14:20) 0 0 0 0 0
08-09-2020 29.9 (16:50) 14.8 (00:00) 22.3 7.78 (14:30) 3.33 (11:50) 0 0 0 0 0
07-09-2020 32 (17:20) 19.1 (08:10) 25.6 8.06 (00:20) 3.33 (00:20) 0 0 0 0 0
06-09-2020 36.6 (15:50) 20.6 (00:00) 28.6 9.72 (22:50) 3.89 (22:50) 0 0 0 0 0
05-09-2020 35.5 (16:50) 19.2 (00:00) 27.4 5.56 (16:50) 1.94 (00:30) 0 0 0 0 0
04-09-2020 35.9 (16:30) 18.5 (00:00) 27.2 5.28 (16:30) 2.5 (06:20) 0 0 0 0 0
03-09-2020 34.5 (17:10) 18.2 (00:00) 26.4 5.28 (16:20) 1.94 (01:20) 0 0 0 0 0
02-09-2020 33.4 (17:20) 15.4 (00:00) 24.4 5.28 (14:50) 2.78 (04:30) 0 0 0 0 0
01-09-2020 30.8 (16:20) 17.3 (00:00) 24 5.83 (16:20) 2.22 (15:40) 0 0 0 0 0
31-08-2020 28.8 (17:40) 13.3 (00:00) 21 4.72 (00:20) 2.22 (00:20) 0 0 0 0 0
30-08-2020 27.1 (17:20) 12.2 (00:00) 19.7 7.5 (00:10) 3.61 (00:10) 0 0 0 0 0
29-08-2020 26.5 (17:50) 17.8 (00:00) 22.1 14.17 (00:10) 6.39 (00:10) 0 0 0 0 0
28-08-2020 34.7 (16:00) 21.1 (00:00) 27.9 16.39 (23:59) 6.39 (23:59) 0 0 0 0 0
27-08-2020 38.5 (16:50) 20.5 (00:00) 29.5 11.67 (22:40) 5.83 (22:40) 0 0 0 0 0
26-08-2020 38.8 (17:00) 21 (00:00) 29.9 6.67 (17:20) 3.06 (01:10) 0 0 0 0 0
25-08-2020 38 (17:00) 22 (00:00) 30 7.5 (17:00) 3.33 (16:20) 0 0 0 0 0
24-08-2020 37 (17:20) 19.5 (00:00) 28.3 5.83 (18:00) 2.5 (04:40) 0 0 0 0 0
23-08-2020 36.4 (17:40) 19.9 (00:00) 28.2 9.17 (22:20) 3.61 (22:20) 0 0 0 0 0
22-08-2020 34.3 (17:20) 16.4 (00:00) 25.3 5.83 (23:20) 2.22 (18:00) 0 0 0 0 0
21-08-2020 31.9 (16:20) 18.9 (00:00) 25.4 7.22 (16:30) 2.78 (16:30) 0 0 0 0 0
20-08-2020 34.8 (16:40) 16.8 (00:00) 25.8 6.39 (16:10) 2.78 (15:40) -- 0 0 -- 0

Gráficas

Temp. máximas Temp. mínimas Temp. medias Precipitaciones Rachas de viento máximas Velocidades máximas media en intervalos de 10 minutos

Datos horarios

Fecha y hora oficial Temperatura (ºC) Velocidad del viento (km/h) Dirección del viento Racha (km/h) Dirección de racha Precipitación (mm) Presión (hPa) Tendencia (hPa) Humedad (%)
2020-09-18 23:00:00 14.5 3 Sudeste 9 Norte 6.2 -- -- 95
2020-09-18 22:00:00 15 4 Oeste 16 Nordeste 13.6 -- -- 93
2020-09-18 21:00:00 15.5 3 Oeste 13 Este 7.6 -- -- 94
2020-09-18 20:00:00 16.4 3 Oeste 18 Este 0.4 -- -- 92
2020-09-18 19:00:00 17.7 0 Calma 9 Este 0 -- -- 89
2020-09-18 18:00:00 17.9 3 Sudeste 11 Sur 0 -- -- 88
2020-09-18 17:00:00 16.2 6 Nordeste 19 Norte 2.6 -- -- 91
2020-09-18 16:00:00 18.7 5 Sudoeste 11 Sudoeste 0.8 -- -- 80
2020-09-18 15:00:00 21.7 0 Calma 13 Este 0 -- -- 57
2020-09-18 14:00:00 23.2 3 Sur 12 Este 0 -- -- 50
2020-09-18 13:00:00 21.5 4 Norte 9 Norte 0 -- -- 54
2020-09-18 12:00:00 20.9 4 Sudeste 9 Este 0 -- -- 74
2020-09-18 11:00:00 19.1 2 Este 8 Norte 0 -- -- 86
2020-09-18 10:00:00 16.4 3 Nordeste 7 Este 0 -- -- 97
2020-09-18 09:00:00 15.1 2 Nordeste 5 Este 0 -- -- 97
2020-09-18 08:00:00 15.4 2 Norte 5 Norte 1.2 -- -- 96
2020-09-18 07:00:00 15.5 2 Oeste 7 Noroeste 5.8 -- -- 96
2020-09-18 06:00:00 15.8 0 Calma 11 Sur 4.6 -- -- 96
2020-09-18 05:00:00 16.2 3 Sudeste 11 Noroeste 2 -- -- 94
2020-09-18 04:00:00 16.3 4 Noroeste 13 Norte 1.4 -- -- 95
2020-09-18 03:00:00 16.3 5 Noroeste 32 Sur 0.2 -- -- 91
2020-09-18 02:00:00 17.4 3 Noroeste 10 Norte 0 -- -- 90
2020-09-18 01:00:00 17.3 5 Norte 12 Norte 0 -- -- 91
2020-09-18 00:00:00 17.2 5 Noroeste 9 Oeste 0.2 -- -- 93
2020-09-17 23:00:00 17.2 2 Sudoeste 13 Norte 0.2 -- -- 94
2020-09-17 22:00:00 17.1 4 Oeste 36 Nordeste 4.6 -- -- 92
2020-09-17 21:00:00 18.2 4 Noroeste 22 Norte 0 -- -- 88
2020-09-17 20:00:00 17.5 5 Noroeste 43 Sudoeste 10.6 -- -- 86
2020-09-17 19:00:00 24.7 4 Este 11 Nordeste 0 -- -- 58
2020-09-17 18:00:00 24.9 0 Calma 8 Norte 0 -- -- 60
2020-09-17 17:00:00 23.2 4 Norte 10 Nordeste 0 -- -- 66
2020-09-17 16:00:00 22.6 4 Nordeste 9 Norte 0 -- -- 68
2020-09-17 15:00:00 21.4 4 Nordeste 12 Oeste 0 -- -- 75
2020-09-17 14:00:00 23.7 6 Sudeste 15 Sur 0 -- -- 61
2020-09-17 13:00:00 25.1 4 Sudeste 17 Este 0 -- -- 52
2020-09-17 12:00:00 23.1 6 Este 17 Este 0 -- -- 59
2020-09-17 11:00:00 21.1 2 Nordeste 8 Sur 0 -- -- 65
2020-09-17 10:00:00 20.6 0 Calma 7 Oeste 0 -- -- 68
2020-09-17 09:00:00 19.9 0 Calma 4 Noroeste 0 -- -- 69
2020-09-17 08:00:00 19.9 0 Calma 10 Este 0 -- -- 69
2020-09-17 07:00:00 19.9 0 Calma 10 Norte 0 -- -- 71
2020-09-17 06:00:00 20.3 4 Noroeste 8 Noroeste 0 -- -- 69
2020-09-17 05:00:00 20.8 0 Calma 13 Sudoeste 0 -- -- 64
2020-09-17 04:00:00 22.1 9 Sudoeste 29 Sudoeste 0 -- -- 56
2020-09-17 03:00:00 22.4 2 Nordeste 10 Nordeste 0 -- -- 53
2020-09-17 02:00:00 21.8 2 Oeste 10 Nordeste 0 -- -- 55
2020-09-17 01:00:00 22.9 2 Norte 12 Norte 0 -- -- 51
2020-09-17 00:00:00 24.1 4 Sudoeste 19 Sur 0 -- -- 47
2020-09-16 23:00:00 24 2 Noroeste 15 Sudeste 0 -- -- 50
2020-09-16 22:00:00 23.8 6 Norte 15 Norte 0.2 -- -- 49
2020-09-16 21:00:00 25.8 4 Noroeste 9 Oeste 0 -- -- 38
2020-09-16 20:00:00 26.7 5 Noroeste 9 Noroeste 0 -- -- 39
2020-09-16 19:00:00 29 4 Noroeste 7 Oeste 0 -- -- 34
2020-09-16 18:00:00 30.7 0 Calma 11 Sudoeste 0 -- -- 31
2020-09-16 17:00:00 31.7 4 Nordeste 10 Sur 0 -- -- 30
2020-09-16 16:00:00 31.5 4 Sur 14 Sur 0 -- -- 31
2020-09-16 15:00:00 30.8 4 Este 14 Este 0 -- -- 31
2020-09-16 14:00:00 30.2 4 Sudeste 12 Este 0 -- -- 35
2020-09-16 13:00:00 29 6 Este 12 Este 0 -- -- 39
2020-09-16 12:00:00 26.7 3 Este 8 Este 0 -- -- 44
2020-09-16 11:00:00 22.6 4 Noroeste 9 Noroeste 0 -- -- 55
2020-09-16 10:00:00 20.6 0 Calma 5 Norte 0 -- -- 58
2020-09-16 09:00:00 18.3 0 Calma 6 Sudoeste 0 -- -- 67
2020-09-16 08:00:00 16.8 2 Oeste 4 Sudoeste 0 -- -- 69
2020-09-16 07:00:00 17.8 0 Calma 4 Sudoeste 0 -- -- 65
2020-09-16 06:00:00 18.8 2 Sudoeste 5 Norte 0 -- -- 63
2020-09-16 05:00:00 20.3 4 Noroeste 7 Noroeste 0 -- -- 54
2020-09-16 04:00:00 19.5 4 Noroeste 6 Noroeste 0 -- -- 57
2020-09-16 03:00:00 18.6 0 Calma 5 Noroeste 0 -- -- 66
2020-09-16 02:00:00 20.6 3 Nordeste 8 Norte 0 -- -- 55
2020-09-16 01:00:00 21.5 3 Noroeste 9 Noroeste 0 -- -- 52
2020-09-16 00:00:00 21.9 5 Noroeste 8 Norte 0 -- -- 51
2020-09-15 23:00:00 21.3 4 Norte 8 Norte 0 -- -- 51
2020-09-15 22:00:00 22.3 4 Noroeste 8 Oeste 0 -- -- 56
2020-09-15 21:00:00 23.3 4 Noroeste 8 Noroeste 0 -- -- 53
2020-09-15 20:00:00 25.4 2 Norte 4 Norte 0 -- -- 49
2020-09-15 19:00:00 27.6 2 Norte 15 Norte 0 -- -- 42
2020-09-15 18:00:00 29.5 4 Sudoeste 10 Sudoeste 0 -- -- 38
2020-09-15 17:00:00 29.9 4 Sudoeste 22 Sudoeste 0 -- -- 38
2020-09-15 16:00:00 29.7 6 Sudoeste 17 Sudoeste 0 -- -- 37
2020-09-15 15:00:00 28.8 5 Sur 12 Sudeste 0 -- -- 42
2020-09-15 14:00:00 27.6 3 Sudoeste 13 Sudeste 0 -- -- 46
2020-09-15 13:00:00 26.7 4 Este 14 Nordeste 0 -- -- 52
2020-09-15 12:00:00 24.8 6 Este 15 Este 0 -- -- 59
2020-09-15 11:00:00 22.3 4 Este 8 Este 0 -- -- 68
2020-09-15 10:00:00 20.3 3 Este 6 Este 0 -- -- 74
2020-09-15 09:00:00 18.2 2 Norte 7 Norte 0 -- -- 85
2020-09-15 08:00:00 17.4 3 Noroeste 4 Norte 0 -- -- 85
2020-09-15 07:00:00 17.2 0 Calma 3 Norte 0 -- -- 87
2020-09-15 06:00:00 17.5 0 Calma 4 Noroeste 0 -- -- 86
2020-09-15 05:00:00 18.3 2 Noroeste 6 Norte 0 -- -- 83
2020-09-15 04:00:00 18.2 3 Oeste 5 Oeste 0 -- -- 83
2020-09-15 03:00:00 19.1 4 Noroeste 8 Noroeste 0 -- -- 76
2020-09-15 02:00:00 18.3 2 Noroeste 10 Sudoeste 0 -- -- 84
2020-09-15 01:00:00 19.1 5 Sudoeste 12 Norte 0 -- -- 83
2020-09-15 00:00:00 18.8 3 Noroeste 14 Oeste 0 -- -- 84
2020-09-14 23:00:00 19.4 8 Noroeste 39 Sudoeste 2.4 -- -- 80
2020-09-14 22:00:00 19.9 4 Noroeste 43 Nordeste 0 -- -- 75
2020-09-14 21:00:00 19.2 10 Noroeste 58 Sur 3 -- -- 75
2020-09-14 20:00:00 27.4 3 Noroeste 6 Noroeste 0 -- -- 38
2020-09-14 19:00:00 30.6 3 Sur 11 Sur 0 -- -- 31
2020-09-14 18:00:00 31.4 4 Sudoeste 13 Sudoeste 0 -- -- 30
2020-09-14 17:00:00 32.8 4 Sur 15 Sudoeste 0 -- -- 29
2020-09-14 16:00:00 33.5 5 Este 14 Este 0 -- -- 30
2020-09-14 15:00:00 32.6 4 Sudeste 19 Sudeste 0 -- -- 30
2020-09-14 14:00:00 31.1 4 Nordeste 17 Este 0 -- -- 32
2020-09-14 13:00:00 30.8 4 Sudeste 15 Este 0 -- -- 35
2020-09-14 12:00:00 28.4 3 Sudeste 12 Nordeste 0 -- -- 39
2020-09-14 11:00:00 24.5 3 Este 6 Sudeste 0 -- -- 46
2020-09-14 10:00:00 23.2 0 Calma 6 Sudoeste 0 -- -- 46
2020-09-14 09:00:00 21.2 4 Sudoeste 11 Oeste 0 -- -- 52
2020-09-14 08:00:00 21.4 3 Sudoeste 9 Sudoeste 0 -- -- 49
2020-09-14 07:00:00 21.7 5 Sudoeste 8 Sudoeste 0 -- -- 46
2020-09-14 06:00:00 21.4 3 Oeste 12 Norte 0 -- -- 47
2020-09-14 05:00:00 22 3 Sudoeste 10 Sudoeste 0 -- -- 45
2020-09-14 04:00:00 23.3 3 Sur 10 Sudoeste 0 -- -- 41
2020-09-14 03:00:00 24.7 3 Sur 10 Este 0 -- -- 37
2020-09-14 02:00:00 25.6 0 Calma 13 Sudeste 0 -- -- 35
2020-09-14 01:00:00 28.2 5 Este 31 Este 0 -- -- 30
2020-09-14 00:00:00 29.1 14 Este 31 Este 0 -- -- 28
2020-09-13 23:00:00 27.3 7 Nordeste 16 Nordeste 0 -- -- 32
2020-09-13 22:00:00 27.3 4 Noroeste 10 Norte 0 -- -- 34
2020-09-13 21:00:00 27.8 5 Norte 11 Noroeste 0 -- -- 35
2020-09-13 20:00:00 29.8 0 Calma 10 Este 0 -- -- 33
2020-09-13 19:00:00 32.5 4 Este 11 Este 0 -- -- 29
2020-09-13 18:00:00 32.9 4 Este 15 Nordeste 0 -- -- 28
2020-09-13 17:00:00 33.3 6 Este 18 Este 0 -- -- 28
2020-09-13 16:00:00 33.7 7 Este 23 Este 0 -- -- 28
2020-09-13 15:00:00 34 6 Este 21 Sudeste 0 -- -- 29
2020-09-13 14:00:00 32.5 6 Este 19 Este 0 -- -- 30
2020-09-13 13:00:00 31.1 6 Este 18 Este 0 -- -- 33
2020-09-13 12:00:00 29.8 6 Este 17 Este 0 -- -- 35
2020-09-13 11:00:00 27.6 6 Este 12 Sudeste 0 -- -- 38
2020-09-13 10:00:00 24.4 3 Sudeste 10 Sur 0 -- -- 43
2020-09-13 09:00:00 22 3 Noroeste 7 Noroeste 0 -- -- 46
2020-09-13 08:00:00 20.6 2 Oeste 10 Oeste 0 -- -- 47
2020-09-13 07:00:00 21.6 4 Oeste 17 Sudoeste 0 -- -- 42
2020-09-13 06:00:00 22.4 6 Sudoeste 11 Sudoeste 0 -- -- 37
2020-09-13 05:00:00 23.3 2 Oeste 12 Oeste 0 -- -- 36
2020-09-13 04:00:00 23.3 8 Noroeste 17 Noroeste 0 -- -- 35
2020-09-13 03:00:00 23.8 2 Oeste 7 Noroeste 0 -- -- 32
2020-09-13 02:00:00 26.1 5 Noroeste 13 Noroeste 0 -- -- 29
2020-09-13 01:00:00 27.1 5 Noroeste 13 Norte 0 -- -- 29
2020-09-13 00:00:00 26.9 4 Noroeste 12 Noroeste 0 -- -- 30
2020-09-12 23:00:00 27.7 5 Noroeste 14 Norte 0 -- -- 29
2020-09-12 22:00:00 26.6 4 Norte 13 Norte 0 -- -- 32
2020-09-12 21:00:00 27.5 5 Noroeste 12 Norte 0 -- -- 30
2020-09-12 20:00:00 29.4 5 Norte 10 Norte 0 -- -- 32
2020-09-12 19:00:00 32.6 2 Noroeste 8 Sur 0 -- -- 26
2020-09-12 18:00:00 34.7 4 Sudeste 11 Sur 0 -- -- 22
2020-09-12 17:00:00 35.2 3 Sudeste 17 Sudeste 0 -- -- 22
2020-09-12 16:00:00 35.6 4 Sudeste 16 Sudeste 0 -- -- 22
2020-09-12 15:00:00 35.2 4 Sudeste 15 Sudeste 0 -- -- 23
2020-09-12 14:00:00 34.2 5 Sudeste 15 Este 0 -- -- 24
2020-09-12 13:00:00 32.8 4 Este 15 Sudeste 0 -- -- 27
2020-09-12 12:00:00 30.4 4 Este 13 Sudeste 0 -- -- 28
2020-09-12 11:00:00 27.4 4 Sur 9 Sudeste 0 -- -- 32
2020-09-12 10:00:00 23.8 3 Este 7 Sudoeste 0 -- -- 43
2020-09-12 09:00:00 21 0 Calma 13 Sudoeste 0 -- -- 45
2020-09-12 08:00:00 20.9 3 Norte 8 Noroeste 0 -- -- 40
2020-09-12 07:00:00 20.1 0 Calma 8 Sudoeste 0 -- -- 43
2020-09-12 06:00:00 21.9 2 Sudoeste 12 Noroeste 0 -- -- 39
2020-09-12 05:00:00 23.9 6 Noroeste 9 Noroeste 0 -- -- 34
2020-09-12 04:00:00 22.6 5 Noroeste 7 Noroeste 0 -- -- 36
2020-09-12 03:00:00 22.1 4 Noroeste 6 Norte 0 -- -- 38
2020-09-12 02:00:00 22 0 Calma 8 Oeste 0 -- -- 39
2020-09-12 01:00:00 25 3 Sudoeste 12 Norte 0 -- -- 32
2020-09-12 00:00:00 25.9 4 Noroeste 13 Norte 0 -- -- 30
2020-09-11 23:00:00 25.3 4 Noroeste 10 Norte 0 -- -- 32
2020-09-11 22:00:00 25.6 4 Norte 12 Norte 0 -- -- 33
2020-09-11 21:00:00 26.7 5 Noroeste 9 Noroeste 0 -- -- 33
2020-09-11 20:00:00 29.4 2 Noroeste 6 Nordeste 0 -- -- 33
2020-09-11 19:00:00 31.4 2 Sur 14 Sur 0 -- -- 27
2020-09-11 18:00:00 34.1 5 Sudeste 20 Sur 0 -- -- 23
2020-09-11 17:00:00 34.3 8 Sur 20 Sudoeste 0 -- -- 23
2020-09-11 16:00:00 34.4 7 Sur 19 Sur 0 -- -- 23
2020-09-11 15:00:00 34 4 Sudeste 11 Sudoeste 0 -- -- 24
2020-09-11 14:00:00 33.2 4 Sudeste 15 Sur 0 -- -- 25
2020-09-11 13:00:00 30.9 4 Este 11 Sudeste 0 -- -- 27
2020-09-11 12:00:00 29.4 5 Este 12 Este 0 -- -- 29
2020-09-11 11:00:00 26.4 3 Este 9 Este 0 -- -- 35
2020-09-11 10:00:00 23.4 0 Calma 5 Sur 0 -- -- 41
2020-09-11 09:00:00 20.5 2 Oeste 6 Oeste 0 -- -- 45
2020-09-11 08:00:00 18 3 Noroeste 8 Oeste 0 -- -- 48
2020-09-11 07:00:00 18.6 0 Calma 6 Sur 0 -- -- 46
2020-09-11 06:00:00 19.7 0 Calma 4 Noroeste 0 -- -- 43
2020-09-11 05:00:00 21 3 Oeste 17 Noroeste 0 -- -- 40
2020-09-11 04:00:00 24.7 5 Noroeste 12 Noroeste -- -- -- 32
2020-09-11 03:00:00 24.6 5 Noroeste 12 Noroeste 0 -- -- 32
2020-09-11 02:00:00 24.3 6 Noroeste 10 Noroeste 0 -- -- 33
2020-09-11 01:00:00 24.7 4 Noroeste 10 Noroeste 0 -- -- 31
2020-09-11 00:00:00 24 4 Norte 9 Norte 0 -- -- 33
2020-09-10 23:00:00 24.1 3 Noroeste 13 Norte 0 -- -- 33
2020-09-10 22:00:00 25.3 5 Norte 11 Norte 0 -- -- 32
2020-09-10 21:00:00 25.6 5 Noroeste 8 Noroeste 0 -- -- 34
2020-09-10 20:00:00 27.5 2 Oeste 6 Este 0 -- -- 31
2020-09-10 19:00:00 30.8 2 Sur 12 Sudeste 0 -- -- 26
2020-09-10 18:00:00 33 5 Sur 15 Sur 0 -- -- 23
2020-09-10 17:00:00 33 6 Sur 18 Sudoeste 0 -- -- 24
2020-09-10 16:00:00 32.5 9 Sur 22 Sudoeste 0 -- -- 25
2020-09-10 15:00:00 32.4 4 Sur 15 Este 0 -- -- 26
2020-09-10 14:00:00 31.3 5 Sudeste 13 Sudeste 0 -- -- 28
2020-09-10 13:00:00 30 4 Sudeste 12 Este 0 -- -- 29
2020-09-10 12:00:00 28.5 4 Este 15 Sudeste 0 -- -- 32
2020-09-10 11:00:00 25.7 4 Sudeste 10 Sur 0 -- -- 36
2020-09-10 10:00:00 22 3 Sudoeste 13 Sudoeste 0 -- -- 41
2020-09-10 09:00:00 19.2 0 Calma 3 Este 0 -- -- 47
2020-09-10 08:00:00 17.2 0 Calma 5 Noroeste 0 -- -- 46
2020-09-10 07:00:00 18.9 2 Oeste 12 Oeste 0 -- -- 41
2020-09-10 06:00:00 18.3 9 Noroeste 19 Sudeste 0 -- -- 43
2020-09-10 05:00:00 19.3 2 Oeste 10 Sudoeste 0 -- -- 39
2020-09-10 04:00:00 20.3 4 Norte 9 Norte 0 -- -- 37
2020-09-10 03:00:00 20.1 0 Calma 8 Noroeste 0 -- -- 36
2020-09-10 02:00:00 22.8 4 Noroeste 9 Noroeste 0 -- -- 31
2020-09-10 01:00:00 22.9 3 Noroeste 9 Noroeste 0 -- -- 31
2020-09-10 00:00:00 23.5 4 Noroeste 10 Noroeste 0 -- -- 33
2020-09-09 23:00:00 23.6 6 Noroeste 9 Noroeste 0 -- -- 36
2020-09-09 22:00:00 23.2 4 Noroeste 9 Noroeste 0 -- -- 38
2020-09-09 21:00:00 24.2 4 Noroeste 7 Norte 0 -- -- 36
2020-09-09 20:00:00 26.4 0 Calma 6 Sudeste 0 -- -- 32
2020-09-09 19:00:00 29.7 3 Sudoeste 12 Sur 0 -- -- 26
2020-09-09 18:00:00 31.5 4 Sur 14 Sur 0 -- -- 24
2020-09-09 17:00:00 32.2 3 Sudeste 17 Este 0 -- -- 25
2020-09-09 16:00:00 31 5 Norte 18 Este 0 -- -- 25
2020-09-09 15:00:00 30.6 6 Este 20 Sudeste 0 -- -- 27
2020-09-09 14:00:00 30.3 3 Este 15 Este 0 -- -- 28
2020-09-09 13:00:00 28.8 3 Sudeste 10 Sur 0 -- -- 32
2020-09-09 12:00:00 26.4 4 Sudeste 11 Sur 0 -- -- 35
2020-09-09 11:00:00 23.6 3 Este 9 Sudeste 0 -- -- 39
2020-09-09 10:00:00 19.7 3 Sur 8 Sur 0 -- -- 46
2020-09-09 09:00:00 17.9 3 Sur 12 Sur 0 -- -- 50
2020-09-09 08:00:00 17 2 Sudoeste 11 Norte 0 -- -- 48
2020-09-09 07:00:00 17.7 3 Noroeste 8 Norte 0 -- -- 46
2020-09-09 06:00:00 18.4 3 Oeste 7 Noroeste 0 -- -- 44
2020-09-09 05:00:00 19.3 3 Noroeste 8 Noroeste 0 -- -- 41
2020-09-09 04:00:00 19.9 3 Noroeste 12 Norte 0 -- -- 39
2020-09-09 03:00:00 20.6 3 Norte 10 Norte 0 -- -- 37
2020-09-09 02:00:00 21 5 Noroeste 12 Noroeste 0 -- -- 37
2020-09-09 01:00:00 21 4 Norte 10 Norte 0 -- -- 36
2020-09-09 00:00:00 20.9 5 Norte 12 Norte 0 -- -- 35
2020-09-08 23:00:00 21.4 5 Norte 10 Noroeste 0 -- -- 33
2020-09-08 22:00:00 21.5 4 Norte 10 Noroeste 0 -- -- 35
2020-09-08 21:00:00 22.8 4 Norte 17 Este 0 -- -- 33
2020-09-08 20:00:00 25.1 5 Este 14 Este 0 -- -- 29
2020-09-08 19:00:00 27.6 5 Sudeste 17 Este 0 -- -- 28
2020-09-08 18:00:00 29.4 8 Este 22 Este 0 -- -- 27
2020-09-08 17:00:00 29.7 6 Sudeste 21 Sudeste 0 -- -- 29
2020-09-08 16:00:00 28.4 5 Este 24 Este 0 -- -- 31
2020-09-08 15:00:00 27.8 6 Este 28 Este 0 -- -- 34
2020-09-08 14:00:00 27.7 9 Sudeste 24 Sudeste 0 -- -- 35
2020-09-08 13:00:00 26.5 7 Este 27 Este 0 -- -- 36
2020-09-08 12:00:00 24.7 8 Este 26 Este 0 -- -- 41
2020-09-08 11:00:00 23 10 Este 27 Este 0 -- -- 44
2020-09-08 10:00:00 18.2 3 Sudeste 14 Sudoeste 0 -- -- 41
2020-09-08 09:00:00 16.2 2 Sur 7 Sudoeste 0 -- -- 43
2020-09-08 08:00:00 15.3 4 Sudoeste 10 Sudoeste 0 -- -- 44
2020-09-08 07:00:00 15.9 2 Norte 15 Este 0 -- -- 42
2020-09-08 06:00:00 15.4 2 Sur 8 Sudeste 0 -- -- 44
2020-09-08 05:00:00 17.1 4 Sur 9 Sudoeste 0 -- -- 41
2020-09-08 04:00:00 18.7 3 Este 15 Nordeste 0 -- -- 37
2020-09-08 03:00:00 19.7 3 Sur 10 Este 0 -- -- 36
2020-09-08 02:00:00 19.7 3 Nordeste 18 Nordeste 0 -- -- 34
2020-09-08 01:00:00 20.2 2 Sur 12 Oeste 0 -- -- 33
2020-09-08 00:00:00 22 6 Noroeste 9 Este 0 -- -- 29
2020-09-07 23:00:00 20.9 3 Sudoeste 10 Sudoeste 0 -- -- 33
2020-09-07 22:00:00 22.7 6 Sudoeste 12 Sudoeste 0 -- -- 28
2020-09-07 21:00:00 24.6 3 Oeste 13 Este 0 -- -- 28
2020-09-07 20:00:00 27.5 4 Este 10 Este 0 -- -- 26
2020-09-07 19:00:00 30.5 2 Sur 13 Sudeste 0 -- -- 26
2020-09-07 18:00:00 31.6 4 Este 13 Sur 0 -- -- 26
2020-09-07 17:00:00 31.7 5 Sur 12 Este 0 -- -- 25
2020-09-07 16:00:00 31.6 5 Este 17 Sudeste 0 -- -- 25
2020-09-07 15:00:00 29.4 5 Este 15 Este 0 -- -- 27
2020-09-07 14:00:00 29.1 4 Este 16 Este 0 -- -- 28
2020-09-07 13:00:00 28 5 Sudeste 15 Este 0 -- -- 32
2020-09-07 12:00:00 26.1 3 Este 11 Este 0 -- -- 34
2020-09-07 11:00:00 23.7 3 Sudeste 9 Este 0 -- -- 39
2020-09-07 10:00:00 20.9 3 Sur 10 Sur 0 -- -- 44
2020-09-07 09:00:00 20.6 6 Sur 16 Sudoeste 0 -- -- 44
2020-09-07 08:00:00 19.4 4 Sudoeste 8 Sudoeste 0 -- -- 47
2020-09-07 07:00:00 20.4 3 Sudoeste 9 Noroeste 0 -- -- 47
2020-09-07 06:00:00 21.5 3 Noroeste 8 Sudoeste 0 -- -- 44
2020-09-07 05:00:00 22.2 4 Noroeste 6 Noroeste 0 -- -- 42
2020-09-07 04:00:00 22.6 2 Oeste 9 Noroeste 0 -- -- 42
2020-09-07 03:00:00 23.5 5 Oeste 20 Sudoeste 0 -- -- 40
2020-09-07 02:00:00 27.6 3 Sur 21 Norte 0 -- -- 31
2020-09-07 01:00:00 29.1 9 Norte 29 Norte 0 -- -- 29
2020-09-07 00:00:00 29.5 12 Norte 31 Norte 0 -- -- 30
2020-09-06 23:00:00 29.8 13 Norte 35 Norte 0 -- -- 29
2020-09-06 22:00:00 30 12 Norte 23 Norte 0 -- -- 28
2020-09-06 21:00:00 30.4 7 Norte 20 Norte 0 -- -- 27
2020-09-06 20:00:00 31.8 4 Noroeste 19 Sudoeste 0 -- -- 26
2020-09-06 19:00:00 34.1 6 Sudoeste 16 Sur 0 -- -- 24
2020-09-06 18:00:00 35.8 6 Sudeste 22 Sur 0 -- -- 22
2020-09-06 17:00:00 36.3 8 Sur 18 Sur 0 -- -- 20
2020-09-06 16:00:00 36.5 5 Sudeste 15 Sudeste 0 -- -- 22
2020-09-06 15:00:00 35.3 4 Sur 15 Sudoeste 0 -- -- 23
2020-09-06 14:00:00 33.7 5 Sur 14 Sudeste 0 -- -- 25
2020-09-06 13:00:00 32.4 5 Este 13 Este 0 -- -- 27
2020-09-06 12:00:00 30.3 3 Sudeste 10 Este 0 -- -- 31
2020-09-06 11:00:00 27.7 4 Este 12 Este 0 -- -- 36
2020-09-06 10:00:00 24.6 4 Sudeste 9 Sudoeste 0 -- -- 42
2020-09-06 09:00:00 22.4 3 Sudoeste 9 Sudoeste 0 -- -- 49
2020-09-06 08:00:00 20.9 3 Oeste 13 Sudoeste 0 -- -- 49
2020-09-06 07:00:00 21.7 4 Oeste 12 Sudoeste 0 -- -- 43
2020-09-06 06:00:00 21 4 Oeste 9 Sur 0 -- -- 39
2020-09-06 05:00:00 21.4 4 Noroeste 8 Oeste 0 -- -- 37
2020-09-06 04:00:00 23 7 Oeste 19 Sudeste 0 -- -- 33
2020-09-06 03:00:00 24.5 4 Noroeste 9 Noroeste 0 -- -- 31
2020-09-06 02:00:00 26.1 4 Noroeste 10 Noroeste 0 -- -- 29
2020-09-06 01:00:00 26.6 6 Noroeste 10 Noroeste 0 -- -- 28
2020-09-06 00:00:00 26.9 6 Noroeste 13 Norte 0 -- -- 29
2020-09-05 23:00:00 27.3 5 Noroeste 9 Noroeste 0 -- -- 32
2020-09-05 22:00:00 27.5 4 Noroeste 10 Norte 0 -- -- 34
2020-09-05 21:00:00 28 5 Noroeste 9 Noroeste 0 -- -- 36
2020-09-05 20:00:00 30.3 0 Calma 7 Noroeste 0 -- -- 31
2020-09-05 19:00:00 33.5 3 Norte 13 Sudoeste 0 -- -- 27
2020-09-05 18:00:00 35 6 Sur 13 Sur 0 -- -- 26
2020-09-05 17:00:00 35.4 5 Este 20 Sur 0 -- -- 26
2020-09-05 16:00:00 35.1 5 Este 15 Sur 0 -- -- 27
2020-09-05 15:00:00 34.1 5 Sur 16 Sudeste 0 -- -- 29
2020-09-05 14:00:00 33.5 5 Sur 13 Sudeste 0 -- -- 31
2020-09-05 13:00:00 31.8 3 Sudeste 14 Este 0 -- -- 31
2020-09-05 12:00:00 28.4 3 Nordeste 10 Sudeste 0 -- -- 35
2020-09-05 11:00:00 26.1 4 Este 10 Este 0 -- -- 38
2020-09-05 10:00:00 22.7 2 Sur 9 Sur 0 -- -- 40
2020-09-05 09:00:00 21.6 0 Calma 10 Sudoeste 0 -- -- 46
2020-09-05 08:00:00 19.3 5 Sudoeste 10 Sudoeste 0 -- -- 43
2020-09-05 07:00:00 20.1 4 Sudoeste 9 Oeste 0 -- -- 41
2020-09-05 06:00:00 22.5 2 Sudoeste 7 Noroeste 0 -- -- 35
2020-09-05 05:00:00 24.2 3 Norte 9 Noroeste 0 -- -- 31
2020-09-05 04:00:00 24.4 4 Noroeste 8 Noroeste 0 -- -- 32
2020-09-05 03:00:00 25.1 5 Noroeste 10 Noroeste 0 -- -- 32
2020-09-05 02:00:00 26 5 Norte 11 Norte 0 -- -- 31
2020-09-05 01:00:00 26 7 Noroeste 12 Noroeste 0 -- -- 31
2020-09-05 00:00:00 26 5 Noroeste 10 Noroeste 0 -- -- 31
2020-09-04 23:00:00 26.5 4 Noroeste 9 Noroeste 0 -- -- 30
2020-09-04 22:00:00 25.9 4 Norte 11 Norte 0 -- -- 32
2020-09-04 21:00:00 27.1 4 Noroeste 6 Noroeste 0 -- -- 31
2020-09-04 20:00:00 29.8 0 Calma 11 Sudoeste 0 -- -- 29
2020-09-04 19:00:00 34 3 Sur 13 Sudeste 0 -- -- 22
2020-09-04 18:00:00 35.5 6 Este 18 Este 0 -- -- 24
2020-09-04 17:00:00 35.9 4 Sudeste 19 Sudeste 0 -- -- 25
2020-09-04 16:00:00 35.3 5 Sudeste 18 Nordeste 0 -- -- 27
2020-09-04 15:00:00 34.7 5 Sur 16 Este 0 -- -- 26
2020-09-04 14:00:00 33.8 5 Sudeste 14 Este 0 -- -- 30
2020-09-04 13:00:00 31.8 5 Este 17 Este 0 -- -- 32
2020-09-04 12:00:00 29.4 3 Sudeste 10 Nordeste 0 -- -- 34
2020-09-04 11:00:00 25.7 4 Sudeste 10 Sudoeste 0 -- -- 33
2020-09-04 10:00:00 22.7 5 Sur 11 Sudoeste 0 -- -- 40
2020-09-04 09:00:00 21.6 4 Sudoeste 10 Oeste 0 -- -- 40
2020-09-04 08:00:00 18.5 4 Sudoeste 10 Sudoeste 0 -- -- 43
2020-09-04 07:00:00 20.1 2 Oeste 13 Noroeste 0 -- -- 38
2020-09-04 06:00:00 19.4 3 Noroeste 8 Noroeste 0 -- -- 40
2020-09-04 05:00:00 20.7 0 Calma 9 Oeste 0 -- -- 37
2020-09-04 04:00:00 21.9 3 Noroeste 17 Sur 0 -- -- 35
2020-09-04 03:00:00 24.9 5 Norte 18 Noroeste 0 -- -- 29
2020-09-04 02:00:00 25.5 5 Noroeste 13 Oeste 0 -- -- 28
2020-09-04 01:00:00 25.2 3 Norte 11 Noroeste 0 -- -- 31
2020-09-04 00:00:00 25.8 5 Norte 10 Noroeste 0 -- -- 31
2020-09-03 23:00:00 25.9 4 Noroeste 11 Noroeste 0 -- -- 31
2020-09-03 22:00:00 26.5 4 Noroeste 13 Noroeste 0 -- -- 30
2020-09-03 21:00:00 26.8 6 Noroeste 9 Noroeste 0 -- -- 32
2020-09-03 20:00:00 29.5 2 Oeste 5 Oeste 0 -- -- 27
2020-09-03 19:00:00 33.1 2 Noroeste 10 Noroeste 0 -- -- 23
2020-09-03 18:00:00 34.2 3 Este 12 Sudeste 0 -- -- 21
2020-09-03 17:00:00 34.4 4 Sudeste 19 Sudoeste 0 -- -- 22
2020-09-03 16:00:00 34.4 6 Sur 17 Sudeste 0 -- -- 21
2020-09-03 15:00:00 33.7 4 Este 15 Este 0 -- -- 23
2020-09-03 14:00:00 32.2 6 Sur 15 Sur 0 -- -- 23
2020-09-03 13:00:00 31.5 4 Este 14 Sur 0 -- -- 24
2020-09-03 12:00:00 28.5 4 Este 10 Nordeste 0 -- -- 27
2020-09-03 11:00:00 24.5 4 Nordeste 12 Oeste 0 -- -- 34
2020-09-03 10:00:00 21.4 7 Sudoeste 14 Sudoeste 0 -- -- 36
2020-09-03 09:00:00 21.3 4 Sudoeste 9 Sudoeste 0 -- -- 37
2020-09-03 08:00:00 18.8 7 Sudoeste 12 Sudoeste 0 -- -- 40
2020-09-03 07:00:00 19.7 3 Norte 11 Noroeste 0 -- -- 39
2020-09-03 06:00:00 19.9 6 Noroeste 9 Noroeste 0 -- -- 38
2020-09-03 05:00:00 18.2 0 Calma 5 Sudoeste 0 -- -- 41
2020-09-03 04:00:00 19.8 0 Calma 7 Sudoeste 0 -- -- 39
2020-09-03 03:00:00 21 2 Sudoeste 6 Sudoeste 0 -- -- 36
2020-09-03 02:00:00 23.7 4 Noroeste 14 Noroeste 0 -- -- 31
2020-09-03 01:00:00 24.1 6 Noroeste 14 Norte 0 -- -- 30
2020-09-03 00:00:00 23.4 3 Norte 9 Noroeste 0 -- -- 30
2020-09-02 23:00:00 23.6 5 Norte 12 Norte 0 -- -- 28
2020-09-02 22:00:00 23.8 5 Noroeste 9 Noroeste 0 -- -- 31
2020-09-02 21:00:00 24.6 5 Norte 7 Noroeste 0 -- -- 34
2020-09-02 20:00:00 27.6 3 Sudoeste 12 Sur 0 -- -- 29
2020-09-02 19:00:00 31.4 3 Sur 16 Sudoeste 0 -- -- 23
2020-09-02 18:00:00 32.8 5 Sudeste 15 Sudoeste 0 -- -- 22
2020-09-02 17:00:00 33.1 5 Sudeste 15 Sudeste 0 -- -- 22
2020-09-02 16:00:00 32.8 5 Sudeste 17 Este 0 -- -- 22
2020-09-02 15:00:00 32.3 6 Este 19 Este 0 -- -- 24
2020-09-02 14:00:00 31 5 Sur 17 Nordeste 0 -- -- 23
2020-09-02 13:00:00 30.3 5 Este 17 Sudeste 0 -- -- 22
2020-09-02 12:00:00 26.8 4 Nordeste 11 Este 0 -- -- 27
2020-09-02 11:00:00 23.9 4 Este 9 Este 0 -- -- 30
2020-09-02 10:00:00 21.6 3 Este 6 Sudeste 0 -- -- 33
2020-09-02 09:00:00 19 4 Noroeste 6 Noroeste 0 -- -- 35
2020-09-02 08:00:00 15.4 2 Oeste 5 Sudoeste 0 -- -- 42
2020-09-02 07:00:00 16.7 0 Calma 11 Sudoeste 0 -- -- 38
2020-09-02 06:00:00 17.3 3 Sudoeste 10 Noroeste 0 -- -- 35
2020-09-02 05:00:00 19.2 6 Noroeste 15 Este 0 -- -- 32
2020-09-02 04:00:00 19.4 6 Noroeste 9 Oeste 0 -- -- 33
2020-09-02 03:00:00 18.6 2 Sudoeste 9 Noroeste 0 -- -- 35
2020-09-02 02:00:00 21 2 Sudeste 8 Noroeste 0 -- -- 30
2020-09-02 01:00:00 22.5 5 Noroeste 11 Norte 0 -- -- 27
2020-09-02 00:00:00 22.6 5 Noroeste 9 Noroeste 0 -- -- 27
2020-09-01 23:00:00 22.5 5 Noroeste 12 Noroeste 0 -- -- 26
2020-09-01 22:00:00 22.8 4 Norte 9 Noroeste 0 -- -- 27
2020-09-01 21:00:00 24.4 4 Noroeste 6 Norte 0 -- -- 27
2020-09-01 20:00:00 28 0 Calma 8 Sur 0 -- -- 26
2020-09-01 19:00:00 29.1 2 Sudoeste 14 Sudoeste 0 -- -- 22
2020-09-01 18:00:00 30.4 3 Nordeste 15 Sudeste 0 -- -- 21
2020-09-01 17:00:00 30.3 4 Sudeste 21 Oeste 0 -- -- 22
2020-09-01 16:00:00 30.1 6 Sur 21 Sudoeste 0 -- -- 21
2020-09-01 15:00:00 30.4 6 Sudeste 15 Sudeste 0 -- -- 20
2020-09-01 14:00:00 28.9 4 Este 10 Este 0 -- -- 24
2020-09-01 13:00:00 27.7 5 Sudeste 12 Sudeste 0 -- -- 26
2020-09-01 12:00:00 25.8 4 Sudeste 9 Este 0 -- -- 30
2020-09-01 11:00:00 22.2 3 Sudeste 9 Sur 0 -- -- 35
2020-09-01 10:00:00 18.9 0 Calma 17 Sur 0 -- -- 44
2020-09-01 09:00:00 18.1 3 Oeste 9 Oeste 0 -- -- 44
2020-09-01 08:00:00 17.7 5 Noroeste 8 Noroeste 0 -- -- 39
2020-09-01 07:00:00 18.7 0 Calma 9 Noroeste 0 -- -- 37
2020-09-01 06:00:00 18.9 4 Sudoeste 9 Sudoeste 0 -- -- 35
2020-09-01 05:00:00 17.9 2 Oeste 4 Sudoeste 0 -- -- 39
2020-09-01 04:00:00 18.4 0 Calma 10 Norte 0 -- -- 37
2020-09-01 03:00:00 20.1 3 Noroeste 9 Noroeste 0 -- -- 32
2020-09-01 02:00:00 20 3 Norte 10 Norte 0 -- -- 31
2020-09-01 01:00:00 20.5 4 Noroeste 8 Noroeste 0 -- -- 31
2020-09-01 00:00:00 20.5 4 Noroeste 10 Noroeste 0 -- -- 31
2020-08-31 23:00:00 20.6 4 Norte 11 Noroeste 0 -- -- 32
2020-08-31 22:00:00 20.8 5 Noroeste 8 Oeste 0 -- -- 31
2020-08-31 21:00:00 21 3 Noroeste 6 Noroeste 0 -- -- 32
2020-08-31 20:00:00 24 0 Calma 10 Sudoeste 0 -- -- 27
2020-08-31 19:00:00 27.5 4 Sur 12 Sudoeste 0 -- -- 24
2020-08-31 18:00:00 28.2 5 Sur 14 Sur 0 -- -- 23
2020-08-31 17:00:00 28.5 4 Sudeste 14 Este 0 -- -- 25
2020-08-31 16:00:00 27.9 5 Este 14 Sur 0 -- -- 25
2020-08-31 15:00:00 27.3 5 Este 14 Este 0 -- -- 26
2020-08-31 14:00:00 25.1 4 Este 13 Este 0 -- -- 28
2020-08-31 13:00:00 26 4 Este 15 Sudeste 0 -- -- 26
2020-08-31 12:00:00 25 6 Este 17 Este 0 -- -- 28
2020-08-31 11:00:00 21.5 4 Sudeste 13 Sur 0 -- -- 34
2020-08-31 10:00:00 19 3 Este 7 Noroeste 0 -- -- 38
2020-08-31 09:00:00 16 2 Norte 5 Sudeste 0 -- -- 44
2020-08-31 08:00:00 14.1 3 Oeste 8 Oeste 0 -- -- 44
2020-08-31 07:00:00 13.7 4 Noroeste 6 Norte 0 -- -- 46
2020-08-31 06:00:00 13.9 2 Oeste 9 Noroeste 0 -- -- 46
2020-08-31 05:00:00 14.2 3 Norte 8 Noroeste 0 -- -- 45
2020-08-31 04:00:00 14.3 2 Sudoeste 8 Sudoeste 0 -- -- 44
2020-08-31 03:00:00 14.8 3 Sudoeste 11 Sudoeste 0 -- -- 45
2020-08-31 02:00:00 15.7 3 Oeste 10 Sur 0 -- -- 43
2020-08-31 01:00:00 18.5 4 Noroeste 17 Noroeste 0 -- -- 36
2020-08-31 00:00:00 18.2 6 Noroeste 10 Noroeste 0 -- -- 37
2020-08-30 23:00:00 18.5 3 Norte 12 Norte 0 -- -- 36
2020-08-30 22:00:00 20.6 5 Norte 22 Noroeste 0 -- -- 31
2020-08-30 21:00:00 21.3 4 Oeste 13 Oeste 0 -- -- 31
2020-08-30 20:00:00 23.3 3 Sur 13 Sudoeste 0 -- -- 32
2020-08-30 19:00:00 26.1 4 Sur 14 Este 0 -- -- 27
2020-08-30 18:00:00 26.7 4 Sudeste 14 Sudeste 0 -- -- 28
2020-08-30 17:00:00 26.4 5 Sur 19 Oeste 0 -- -- 28
2020-08-30 16:00:00 25.8 7 Sudoeste 20 Sur 0 -- -- 28
2020-08-30 15:00:00 25.9 7 Sudeste 17 Este 0 -- -- 29
2020-08-30 14:00:00 23.7 4 Noroeste 14 Sudeste 0 -- -- 32
2020-08-30 13:00:00 24.3 3 Este 13 Este 0 -- -- 34
2020-08-30 12:00:00 22.3 4 Este 17 Este 0 -- -- 37
2020-08-30 11:00:00 19.8 3 Este 12 Este 0 -- -- 44
2020-08-30 10:00:00 17.2 4 Sudeste 9 Este 0 -- -- 51
2020-08-30 09:00:00 15 2 Este 7 Sudoeste 0 -- -- 57
2020-08-30 08:00:00 12.2 4 Sudoeste 8 Sudoeste 0 -- -- 63
2020-08-30 07:00:00 12.7 4 Sudoeste 9 Sudoeste 0 -- -- 62
2020-08-30 06:00:00 13.9 3 Oeste 12 Sudoeste 0 -- -- 57
2020-08-30 05:00:00 14.5 4 Sudoeste 10 Oeste 0 -- -- 54
2020-08-30 04:00:00 14.6 3 Sudoeste 6 Sudoeste 0 -- -- 52
2020-08-30 03:00:00 16.3 0 Calma 16 Norte 0 -- -- 46
2020-08-30 02:00:00 19.1 6 Norte 24 Nordeste 0 -- -- 40
2020-08-30 01:00:00 19.9 8 Norte 27 Noroeste 0 -- -- 37
2020-08-30 00:00:00 20.2 13 Norte 40 Norte 0 -- -- 38
2020-08-29 23:00:00 20.8 15 Norte 44 Norte 0 -- -- 36
2020-08-29 22:00:00 21.5 13 Norte 38 Norte 0 -- -- 33
2020-08-29 21:00:00 22 10 Norte 27 Nordeste 0 -- -- 30
2020-08-29 20:00:00 23.1 6 Nordeste 25 Noroeste 0 -- -- 30
2020-08-29 19:00:00 24.5 10 Noroeste 28 Noroeste 0 -- -- 27
2020-08-29 18:00:00 26.5 6 Norte 26 Norte 0 -- -- 24
2020-08-29 17:00:00 26 10 Norte 28 Norte 0 -- -- 26
2020-08-29 16:00:00 25.6 11 Norte 35 Norte 0 -- -- 25
2020-08-29 15:00:00 24.6 14 Norte 45 Norte 0 -- -- 27
2020-08-29 14:00:00 24.3 12 Norte 33 Norte 0 -- -- 30
2020-08-29 13:00:00 23.9 12 Norte 37 Norte 0 -- -- 31
2020-08-29 12:00:00 22.7 16 Nordeste 42 Nordeste 0 -- -- 32
2020-08-29 11:00:00 21.2 17 Norte 36 Norte 0 -- -- 35
2020-08-29 10:00:00 20 14 Nordeste 39 Norte 0 -- -- 37
2020-08-29 09:00:00 19.7 6 Este 31 Norte 0 -- -- 38
2020-08-29 08:00:00 17.9 17 Norte 43 Nordeste 0 -- -- 36
2020-08-29 07:00:00 18.1 17 Norte 43 Noroeste 0 -- -- 39
2020-08-29 06:00:00 18.8 13 Norte 33 Norte 0 -- -- 36
2020-08-29 05:00:00 18.1 18 Norte 39 Norte 0 -- -- 39
2020-08-29 04:00:00 19.1 15 Nordeste 40 Norte 0 -- -- 37
2020-08-29 03:00:00 20.1 19 Norte 48 Nordeste 0 -- -- 35
2020-08-29 02:00:00 21.3 21 Norte 48 Norte 0 -- -- 33
2020-08-29 01:00:00 22.3 16 Norte 51 Norte 0 -- -- 32
2020-08-29 00:00:00 23.2 23 Norte 59 Norte 0 -- -- 31
2020-08-28 23:00:00 24.4 16 Norte 41 Norte 0 -- -- 28
2020-08-28 22:00:00 25.6 14 Norte 43 Norte 0 -- -- 22
2020-08-28 21:00:00 27 17 Norte 39 Norte 0 -- -- 18
2020-08-28 20:00:00 28.8 12 Norte 30 Norte 0 -- -- 19
2020-08-28 19:00:00 31 13 Norte 32 Norte 0 -- -- 21
2020-08-28 18:00:00 32.9 12 Norte 28 Nordeste 0 -- -- 20
2020-08-28 17:00:00 34.2 8 Sudoeste 27 Sudoeste 0 -- -- 20
2020-08-28 16:00:00 34.7 7 Sudoeste 25 Sudoeste 0 -- -- 22
2020-08-28 15:00:00 34.1 5 Sudeste 18 Sudoeste 0 -- -- 30
2020-08-28 14:00:00 33 5 Este 13 Este 0 -- -- 33
2020-08-28 13:00:00 30.9 4 Este 13 Este 0 -- -- 38
2020-08-28 12:00:00 29.5 4 Sudeste 10 Sur 0 -- -- 42
2020-08-28 11:00:00 26.8 3 Sudeste 9 Nordeste 0 -- -- 49
2020-08-28 10:00:00 24.1 3 Sudeste 8 Sur 0 -- -- 56
2020-08-28 09:00:00 23.2 3 Este 6 Este 0 -- -- 54
2020-08-28 08:00:00 21.1 0 Calma 7 Norte 0 -- -- 54
2020-08-28 07:00:00 21.7 2 Norte 5 Norte 0 -- -- 51
2020-08-28 06:00:00 22.6 2 Noroeste 5 Noroeste 0 -- -- 48
2020-08-28 05:00:00 23.1 0 Calma 6 Norte 0 -- -- 45
2020-08-28 04:00:00 23.9 4 Noroeste 6 Noroeste 0 -- -- 43
2020-08-28 03:00:00 26.7 2 Oeste 24 Norte 0 -- -- 37
2020-08-28 02:00:00 29.3 13 Norte 35 Norte 0 -- -- 35
2020-08-28 01:00:00 30.4 13 Norte 41 Norte 0 -- -- 30
2020-08-28 00:00:00 30.8 18 Norte 41 Noroeste 0 -- -- 29
2020-08-27 23:00:00 31.6 19 Norte 42 Norte 0 -- -- 26
2020-08-27 22:00:00 32.1 17 Norte 34 Norte 0 -- -- 27
2020-08-27 21:00:00 31.4 2 Norte 14 Sudoeste 0 -- -- 35
2020-08-27 20:00:00 34.5 5 Sudoeste 22 Sudoeste 0 -- -- 29
2020-08-27 19:00:00 37 8 Sudoeste 21 Sudoeste 0 -- -- 24
2020-08-27 18:00:00 37.9 7 Sudoeste 24 Sur 0 -- -- 22
2020-08-27 17:00:00 38.5 8 Sur 20 Sudeste 0 -- -- 21
2020-08-27 16:00:00 38.2 5 Sur 15 Sudeste 0 -- -- 20
2020-08-27 15:00:00 37.8 5 Sudeste 16 Sur 0 -- -- 22
2020-08-27 14:00:00 35.9 3 Este 14 Sur 0 -- -- 23
2020-08-27 13:00:00 35 4 Sudeste 11 Este 0 -- -- 23
2020-08-27 12:00:00 33.1 4 Este 8 Este 0 -- -- 26
2020-08-27 11:00:00 29.3 3 Este 7 Este 0 -- -- 32
2020-08-27 10:00:00 26.4 3 Este 5 Sudeste 0 -- -- 36
2020-08-27 09:00:00 24 2 Nordeste 5 Norte 0 -- -- 37
2020-08-27 08:00:00 20.5 0 Calma 4 Este 0 -- -- 41
2020-08-27 07:00:00 21.6 3 Norte 7 Norte 0 -- -- 37
2020-08-27 06:00:00 23 4 Noroeste 6 Noroeste 0 -- -- 33
2020-08-27 05:00:00 22 0 Calma 5 Norte 0 -- -- 39
2020-08-27 04:00:00 23.9 3 Norte 8 Norte 0 -- -- 36
2020-08-27 03:00:00 24.5 5 Noroeste 8 Oeste 0 -- -- 32
2020-08-27 02:00:00 24.9 2 Oeste 5 Oeste 0 -- -- 31
2020-08-27 01:00:00 25.7 3 Oeste 6 Sudoeste 0 -- -- 29
2020-08-27 00:00:00 29.8 5 Nordeste 22 Nordeste 0 -- -- 24
2020-08-26 23:00:00 28.5 5 Noroeste 8 Noroeste 0 -- -- 24
2020-08-26 22:00:00 29 4 Noroeste 11 Noroeste 0 -- -- 23
2020-08-26 21:00:00 29.8 4 Noroeste 8 Sudoeste 0 -- -- 26
2020-08-26 20:00:00 34 3 Sudoeste 15 Sudoeste 0 -- -- 19
2020-08-26 19:00:00 36.8 7 Sudoeste 23 Sudoeste 0 -- -- 15
2020-08-26 18:00:00 38.5 7 Sur 24 Sudoeste 0 -- -- 14
2020-08-26 17:00:00 38.8 7 Sur 22 Sur 0 -- -- 15
2020-08-26 16:00:00 38.6 6 Sur 19 Sur 0 -- -- 17
2020-08-26 15:00:00 38.1 6 Sur 18 Sudeste 0 -- -- 16
2020-08-26 14:00:00 37 7 Sur 15 Sur 0 -- -- 21
2020-08-26 13:00:00 35.5 6 Este 12 Sudeste 0 -- -- 24
2020-08-26 12:00:00 33.3 4 Este 9 Este 0 -- -- 25
2020-08-26 11:00:00 29.9 4 Sudeste 7 Este 0 -- -- 31
2020-08-26 10:00:00 26.9 3 Este 6 Este 0 -- -- 39
2020-08-26 09:00:00 24.3 3 Nordeste 6 Nordeste 0 -- -- 37
2020-08-26 08:00:00 21.6 3 Noroeste 8 Norte 0 -- -- 39
2020-08-26 07:00:00 21.5 2 Sudoeste 6 Noroeste 0 -- -- 40
2020-08-26 06:00:00 24.3 4 Noroeste 7 Noroeste 0 -- -- 34
2020-08-26 05:00:00 23.1 2 Oeste 6 Sudoeste 0 -- -- 36
2020-08-26 04:00:00 24.2 0 Calma 11 Norte 0 -- -- 31
2020-08-26 03:00:00 25.7 4 Norte 14 Noroeste 0 -- -- 29
2020-08-26 02:00:00 25.2 6 Norte 23 Sudoeste 0 -- -- 32
2020-08-26 01:00:00 27.3 8 Sudoeste 22 Sudoeste 0 -- -- 27
2020-08-26 00:00:00 28.6 5 Noroeste 12 Norte 0 -- -- 23
2020-08-25 23:00:00 28 6 Noroeste 10 Sudoeste 0 -- -- 27
2020-08-25 22:00:00 28.9 6 Noroeste 11 Oeste 0 -- -- 28
2020-08-25 21:00:00 29.6 4 Noroeste 9 Sudoeste 0 -- -- 31
2020-08-25 20:00:00 33.6 3 Sudoeste 13 Sudoeste 0 -- -- 23
2020-08-25 19:00:00 36.4 5 Sur 19 Sur 0 -- -- 20
2020-08-25 18:00:00 37.7 8 Sur 22 Sudeste 0 -- -- 19
2020-08-25 17:00:00 38 8 Sur 27 Sur 0 -- -- 19
2020-08-25 16:00:00 37.5 12 Sur 27 Sur 0 -- -- 19
2020-08-25 15:00:00 37.3 6 Sur 16 Sudoeste 0 -- -- 21
2020-08-25 14:00:00 36.2 4 Sudeste 12 Este 0 -- -- 22
2020-08-25 13:00:00 34.6 5 Sudeste 13 Sudoeste 0 -- -- 25
2020-08-25 12:00:00 31.6 5 Nordeste 11 Sudeste 0 -- -- 32
2020-08-25 11:00:00 28.4 6 Sur 13 Sudoeste 0 -- -- 34
2020-08-25 10:00:00 27.7 2 Este 6 Sur 0 -- -- 40
2020-08-25 09:00:00 24.9 3 Sudeste 5 Noroeste 0 -- -- 40
2020-08-25 08:00:00 23.3 3 Noroeste 8 Norte 0 -- -- 37
2020-08-25 07:00:00 22.9 5 Noroeste 9 Noroeste 0 -- -- 39
2020-08-25 06:00:00 22.1 0 Calma 10 Sudoeste 0 -- -- 40
2020-08-25 05:00:00 23.3 3 Oeste 5 Noroeste 0 -- -- 37
2020-08-25 04:00:00 24 0 Calma 10 Norte 0 -- -- 36
2020-08-25 03:00:00 26.1 6 Norte 12 Norte 0 -- -- 31
2020-08-25 02:00:00 24.4 4 Noroeste 8 Norte 0 -- -- 33
2020-08-25 01:00:00 26.1 2 Sudoeste 10 Noroeste 0 -- -- 32
2020-08-25 00:00:00 27.6 4 Noroeste 10 Noroeste 0 -- -- 30
2020-08-24 23:00:00 28 5 Noroeste 9 Noroeste 0 -- -- 31
2020-08-24 22:00:00 28.2 4 Noroeste 11 Norte 0 -- -- 32
2020-08-24 21:00:00 29.3 5 Noroeste 7 Noroeste 0 -- -- 35
2020-08-24 20:00:00 32.1 0 Calma 9 Sur 0 -- -- 31
2020-08-24 19:00:00 35 3 Sudeste 13 Sudoeste 0 -- -- 26
2020-08-24 18:00:00 36 5 Sudeste 21 Sudeste 0 -- -- 26
2020-08-24 17:00:00 36.1 4 Sudeste 15 Sur 0 -- -- 25
2020-08-24 16:00:00 35.9 5 Sudeste 15 Sur 0 -- -- 24
2020-08-24 15:00:00 35.4 5 Sur 15 Sur 0 -- -- 27
2020-08-24 14:00:00 34.7 4 Este 14 Este 0 -- -- 28
2020-08-24 13:00:00 32.9 5 Este 14 Sudeste 0 -- -- 27
2020-08-24 12:00:00 31 4 Sudeste 12 Este 0 -- -- 27
2020-08-24 11:00:00 29.2 4 Sudeste 9 Este 0 -- -- 30
2020-08-24 10:00:00 26 3 Este 6 Nordeste 0 -- -- 34
2020-08-24 09:00:00 22.9 2 Norte 7 Noroeste 0 -- -- 37
2020-08-24 08:00:00 19.7 4 Norte 9 Norte 0 -- -- 40
2020-08-24 07:00:00 22.8 5 Noroeste 12 Noroeste 0 -- -- 33
2020-08-24 06:00:00 22.6 4 Noroeste 13 Norte 0 -- -- 34
2020-08-24 05:00:00 22 6 Norte 12 Noroeste 0 -- -- 35
2020-08-24 04:00:00 21.4 0 Calma 6 Sudeste 0 -- -- 36
2020-08-24 03:00:00 22.7 0 Calma 7 Oeste 0 -- -- 33
2020-08-24 02:00:00 24.6 5 Sudoeste 10 Noroeste 0 -- -- 30
2020-08-24 01:00:00 25.9 5 Noroeste 12 Norte 0 -- -- 28
2020-08-24 00:00:00 28 4 Noroeste 22 Norte 0 -- -- 25
2020-08-23 23:00:00 29.3 8 Norte 33 Nordeste 0 -- -- 23
2020-08-23 22:00:00 30.1 13 Norte 28 Norte 0 -- -- 22
2020-08-23 21:00:00 29.1 5 Noroeste 10 Norte 0 -- -- 26
2020-08-23 20:00:00 31.2 4 Sudoeste 11 Sur 0 -- -- 26
2020-08-23 19:00:00 34.1 4 Sudeste 17 Sudoeste 0 -- -- 22
2020-08-23 18:00:00 35.9 4 Sudeste 13 Este 0 -- -- 20
2020-08-23 17:00:00 35.7 5 Sur 14 Sudeste 0 -- -- 19
2020-08-23 16:00:00 35.6 4 Sur 15 Nordeste 0 -- -- 19
2020-08-23 15:00:00 34.7 5 Este 15 Sur 0 -- -- 21
2020-08-23 14:00:00 34 5 Sudeste 12 Sudeste 0 -- -- 22
2020-08-23 13:00:00 32.2 4 Sudeste 13 Este 0 -- -- 23
2020-08-23 12:00:00 30.9 4 Sudeste 12 Sudeste 0 -- -- 24
2020-08-23 11:00:00 28.4 5 Sur 11 Sudeste 0 -- -- 27
2020-08-23 10:00:00 25.2 4 Noroeste 8 Oeste 0 -- -- 30
2020-08-23 09:00:00 23.2 3 Sur 6 Sudoeste 0 -- -- 32
2020-08-23 08:00:00 19.9 3 Oeste 8 Sudoeste 0 -- -- 38
2020-08-23 07:00:00 21.4 3 Oeste 8 Oeste 0 -- -- 34
2020-08-23 06:00:00 21.2 4 Norte 10 Oeste 0 -- -- 36
2020-08-23 05:00:00 20 0 Calma 7 Sudoeste 0 -- -- 38
2020-08-23 04:00:00 20.9 0 Calma 8 Noroeste 0 -- -- 36
2020-08-23 03:00:00 20.4 0 Calma 7 Oeste 0 -- -- 37
2020-08-23 02:00:00 22.4 0 Calma 10 Este 0 -- -- 35
2020-08-23 01:00:00 26 6 Norte 23 Norte 0 -- -- 28
2020-08-23 00:00:00 25.6 4 Nordeste 21 Noroeste 0 -- -- 28
2020-08-22 23:00:00 25 6 Norte 15 Norte 0 -- -- 30
2020-08-22 22:00:00 25.5 4 Norte 8 Noroeste 0 -- -- 30
2020-08-22 21:00:00 26.8 4 Norte 12 Sudoeste 0 -- -- 30
2020-08-22 20:00:00 30.8 4 Sudoeste 10 Sudoeste 0 -- -- 23
2020-08-22 19:00:00 32.9 3 Oeste 16 Sudoeste 0 -- -- 23
2020-08-22 18:00:00 33.9 8 Sudoeste 20 Sudoeste 0 -- -- 26
2020-08-22 17:00:00 34 6 Sur 17 Sudoeste 0 -- -- 28
2020-08-22 16:00:00 33.4 6 Sur 19 Sudoeste 0 -- -- 27
2020-08-22 15:00:00 32.3 4 Sudeste 16 Sur 0 -- -- 32
2020-08-22 14:00:00 31 6 Sur 14 Este 0 -- -- 35
2020-08-22 13:00:00 29.3 6 Sur 17 Sudeste 0 -- -- 38
2020-08-22 12:00:00 28.1 4 Sudeste 11 Sur 0 -- -- 44
2020-08-22 11:00:00 25.2 2 Sudeste 9 Sudeste 0 -- -- 48
2020-08-22 10:00:00 22.7 3 Sudeste 6 Este 0 -- -- 55
2020-08-22 09:00:00 20.3 2 Nordeste 5 Norte 0 -- -- 55
2020-08-22 08:00:00 16.4 0 Calma -- -- 0 -- -- 69
2020-08-22 07:00:00 17.3 2 Norte 6 Noroeste 0 -- -- 61
2020-08-22 06:00:00 18.4 0 Calma 7 Norte 0 -- -- 64
2020-08-22 05:00:00 18.8 3 Norte 6 Noroeste 0 -- -- 60
2020-08-22 04:00:00 18.6 2 Norte 5 Norte 0 -- -- 64
2020-08-22 03:00:00 19.2 2 Norte 6 Noroeste 0 -- -- 61
2020-08-22 02:00:00 20.5 4 Norte 11 Norte 0 -- -- 54
2020-08-22 01:00:00 21.7 3 Noroeste 9 Oeste 0 -- -- 48
2020-08-22 00:00:00 22.2 2 Oeste 7 Norte 0 -- -- 49
2020-08-21 23:00:00 23.3 2 Oeste 11 Sudoeste 0 -- -- 48
2020-08-21 22:00:00 25 3 Oeste 10 Oeste 0 -- -- 47
2020-08-21 21:00:00 27.2 4 Sudoeste 13 Sudoeste 0 -- -- 44
2020-08-21 20:00:00 28.4 8 Sudoeste 22 Sudoeste 0 -- -- 44
2020-08-21 19:00:00 30 8 Sudoeste 24 Sudoeste 0 -- -- 43
2020-08-21 18:00:00 31.6 8 Sudoeste 25 Sudoeste 0 -- -- 44
2020-08-21 17:00:00 30.7 7 Sudoeste 26 Sudoeste 0 -- -- 47
2020-08-21 16:00:00 31.8 8 Sudoeste 19 Noroeste 0 -- -- 44
2020-08-21 15:00:00 29.5 9 Sudoeste 19 Sudoeste 0 -- -- 49
2020-08-21 14:00:00 29.1 6 Sudoeste 20 Sur 0 -- -- 50
2020-08-21 13:00:00 29.3 8 Sur 20 Sur 0 -- -- 51
2020-08-21 12:00:00 28 8 Sur 20 Sur 0 -- -- 58
2020-08-21 11:00:00 24.7 5 Sudoeste 18 Sudeste 0 -- -- 70
2020-08-21 10:00:00 23.7 3 Sudoeste 9 Sudoeste 0 -- -- 74
2020-08-21 09:00:00 21.7 2 Nordeste 4 Nordeste 0 -- -- 82
2020-08-21 08:00:00 18.9 3 Noroeste 5 Norte 0 -- -- 89
2020-08-21 07:00:00 19.5 3 Noroeste 9 Sudoeste 0 -- -- 87
2020-08-21 06:00:00 20 3 Noroeste 13 Sudoeste 0 -- -- 81
2020-08-21 05:00:00 21.3 2 Sur 10 Sudoeste 0 -- -- 76
2020-08-21 04:00:00 21.4 0 Calma 5 Noroeste 0 -- -- 71
2020-08-21 03:00:00 22.2 2 Norte 5 Noroeste 0 -- -- 67
2020-08-21 02:00:00 22.6 2 Sudoeste 6 Oeste 0 -- -- 61
2020-08-21 01:00:00 23.7 2 Sudoeste 7 Sudoeste 0 -- -- 57
2020-08-21 00:00:00 25.3 0 Calma 10 Oeste 0 -- -- 50
2020-08-20 23:00:00 26.7 4 Oeste 10 Sudoeste 0 -- -- 44
2020-08-20 22:00:00 27.5 4 Oeste 10 Sudoeste 0 -- -- 38
2020-08-20 21:00:00 29.2 4 Oeste 14 Oeste 0 -- -- 30
2020-08-20 20:00:00 31.6 6 Sudoeste 21 Sudoeste 0 -- -- 23
2020-08-20 19:00:00 33.4 6 Sudoeste 23 Sudoeste 0 -- -- 20
2020-08-20 18:00:00 34.6 7 Sudoeste 19 Sudoeste 0 -- -- 18
2020-08-20 17:00:00 34.8 7 Sur 23 Sudoeste 0 -- -- 20
2020-08-20 16:00:00 33.4 8 Sudoeste 23 Sudoeste 0 -- -- 23
2020-08-20 15:00:00 33.2 7 Sudoeste -- -- -- -- -- 20
2020-08-20 14:00:00 -- -- -- -- -- -- -- -- --
2020-08-20 13:00:00 32.1 4 Este 10 Este 0 -- -- 19
2020-08-20 12:00:00 28.7 4 Este 9 Este 0 -- -- 32
2020-08-20 11:00:00 25.3 3 Este 6 Este 0 -- -- 38
2020-08-20 10:00:00 22 3 Este 9 Este 0 -- -- 42
2020-08-20 09:00:00 17.5 0 Calma 6 Noroeste 0 -- -- 46
2020-08-20 08:00:00 17.5 3 Norte 5 Norte 0 -- -- 44
2020-08-20 07:00:00 17.4 0 Calma 8 Noroeste 0 -- -- 40
2020-08-20 06:00:00 17.2 0 Calma 5 Sudoeste 0 -- -- 43
2020-08-20 05:00:00 18.2 3 Noroeste 6 Noroeste 0 -- -- 40
2020-08-20 04:00:00 19.3 2 Norte 8 Noroeste 0 -- -- 38
2020-08-20 03:00:00 20.2 3 Noroeste 9 Norte 0 -- -- 36
2020-08-20 02:00:00 20.6 3 Norte 6 Sudeste 0 -- -- 34
2020-08-20 01:00:00 22.2 3 Oeste 8 Norte 0 -- -- 31
2020-08-20 00:00:00 23.9 5 Norte 11 Norte 0 -- -- 27